METAR Data
IDs: Format: Raw Decoded Include TAF

Data at: 2328 UTC 25 Oct 2021

PAGN 252256Z AUTO 00000KT 10SM -RA FEW050 OVC080 04/04 A2912 RMK AO2 SLP850 P0000 T00440039
PAGN 252156Z AUTO 00000KT 10SM -RA FEW047 OVC065 04/04 A2912 RMK AO2 RAB13 SLP851 P0000 T00390039
PAGN 252104Z AUTO 00000KT 10SM SCT004 OVC050 03/03 A2913 RMK AO2
PAGN 252056Z AUTO 00000KT 10SM BKN050 OVC060 03/03 A2912 RMK AO2 RAE51 SLP852 P0000 60000 T00330033 51002
PAGN 251956Z AUTO 13003KT 10SM -RA FEW047 OVC060 03/03 A2912 RMK AO2 UPB31E33 SLP851 P0000 T00280028
PAGN 251856Z AUTO 00000KT 10SM -RA SCT075 OVC090 02/02 A2912 RMK AO2 RAB1758 SLP850 P0000 T00220022 FZRANO
PAGN 251756Z AUTO 00000KT 10SM OVC060 02/02 A2912 RMK AO2 SLP849 T00170017 10017 20000 55002 FZRANO
PAGN 251656Z AUTO 00000KT 10SM OVC070 01/01 A2911 RMK AO2 SLP846 T00110011 FZRANO
PAGN 251556Z AUTO 00000KT 10SM OVC100 01/01 A2911 RMK AO2 SLP848 T00110011 FZRANO
PAGN 251513Z AUTO 00000KT 10SM FEW003 BKN080 OVC100 01/01 A2912 RMK AO2 FZRANO
PAGN 251456Z AUTO 00000KT 10SM OVC090 01/01 A2912 RMK AO2 SLP851 T00060006 56012 FZRANO
PAGN 251438Z AUTO 16003KT 10SM SCT003 OVC095 01/01 A2912 RMK AO2 FZRANO
PAGN 251423Z AUTO 12003KT 10SM BKN003 OVC095 01/01 A2912 RMK AO2 FZRANO
PAGN 251356Z AUTO 00000KT 10SM SCT003 BKN080 BKN095 01/01 A2913 RMK AO2 SLP854 T00060006 FZRANO
PAGN 251325Z AUTO 00000KT 10SM BKN003 01/01 A2914 RMK AO2 FZRANO
PAGN 251316Z AUTO 00000KT 10SM SCT003 00/00 A2914 RMK AO2 FZRANO
PAGN 251256Z AUTO 00000KT 10SM CLR 00/00 A2914 RMK AO2 SLP858 T00000000 FZRANO
PAGN 251209Z AUTO 00000KT 10SM FEW002 01/01 A2915 RMK AO2 FZRANO
PAGN 251156Z AUTO 00000KT 10SM BKN002 01/01 A2916 RMK AO2 SLP862 T00060006 10017 21006 58008 FZRANO
PAGN 251111Z AUTO 14003KT 3SM BR OVC002 01/01 A2916 RMK AO2 FZRANO
PAGN 251102Z AUTO 00000KT 1 3/4SM BR OVC002 00/00 A2916 RMK AO2 VIS 1V5 FZRANO
PAGN 251056Z AUTO 01003KT 3SM BR OVC002 00/00 A2917 RMK AO2 SLP866 T00000000 FZRANO
PAGN 251033Z AUTO 16003KT 10SM BKN002 00/00 A2917 RMK AO2 FZRANO
PAGN 251024Z AUTO 10003KT 2SM BR BKN002 00/00 A2917 RMK AO2 FZRANO
PAGN 251012Z AUTO 00000KT 10SM BKN002 M01/M01 A2917 RMK AO2 FZRANO
PAGN 250956Z AUTO 00000KT 10SM SCT002 00/00 A2917 RMK AO2 SLP868 T00000000 FZRANO
PAGN 250936Z AUTO 00000KT 8SM BKN002 00/00 A2917 RMK AO2 FZRANO
PAGN 250929Z AUTO 00000KT 2 1/2SM BR OVC002 00/00 A2918 RMK AO2 FZRANO
PAGN 250903Z AUTO 00000KT 5SM BR OVC002 00/00 A2918 RMK AO2 FZRANO
PAGN 250856Z AUTO 00000KT 2 1/2SM BR OVC002 00/00 A2918 RMK AO2 VIS 1 1/2V5 SLP871 T00000000 400830000 58005 FZRANO
PAGN 250850Z AUTO 00000KT 1 1/4SM BR OVC002 00/00 A2918 RMK AO2 400830000 FZRANO
PAGN 250836Z AUTO 00000KT 3/4SM BR OVC002 00/00 A2918 RMK AO2 FZRANO RVRNO
PAGN 250825Z AUTO 00000KT 1 3/4SM BR OVC002 00/00 A2918 RMK AO2 VIS 1 1/4V2 FZRANO
PAGN 250816Z AUTO 00000KT 1SM BR OVC002 01/00 A2919 RMK AO2 FZRANO RVRNO
PAGN 250806Z AUTO 00000KT 1 3/4SM BR OVC002 01/01 A2919 RMK AO2 VIS 1V5 FZRANO
PAGN 250756Z AUTO 00000KT 3SM BR OVC002 01/00 A2919 RMK AO2 SLP873 T00060000 FZRANO
PAGN 250729Z AUTO 00000KT 3SM BR OVC002 01/01 A2919 RMK AO2 FZRANO
PAGN 250717Z AUTO 00000KT 1 3/4SM BR OVC002 01/01 A2919 RMK AO2 FZRANO
PAGN 250656Z AUTO 00000KT 9SM OVC002 01/01 A2919 RMK AO2 SLP874 T00110011 FZRANO
PAGN 250623Z AUTO 00000KT 3SM BR OVC002 02/02 A2919 RMK AO2 FZRANO
PAGN 250616Z AUTO 00000KT 1 1/4SM BR OVC002 02/02 A2919 RMK AO2 VIS 3/4V4 FZRANO
PAGN 250610Z AUTO 06003KT 3/4SM BR OVC002 02/02 A2919 RMK AO2 FZRANO RVRNO
PAGN 250556Z AUTO 00000KT 1 1/2SM BR OVC002 02/02 A2920 RMK AO2 SLP876 T00170017 10067 20017 51001 FZRANO
PAGN 250554Z AUTO 00000KT 1 3/4SM BR OVC002 02/02 A2920 RMK AO2 FZRANO
PAGN 250508Z AUTO 00000KT 10SM BKN002 02/02 A2919 RMK AO2 FZRANO
PAGN 250456Z AUTO 00000KT 10SM SCT002 02/02 A2920 RMK AO2 SLP876 T00220022 FZRANO
PAGN 250451Z AUTO 00000KT 10SM SCT002 02/02 A2919 RMK AO2 FZRANO
PAGN 250434Z AUTO 00000KT 10SM BKN002 03/03 A2919 RMK AO2
PAGN 250417Z AUTO 00000KT 10SM SCT002 03/03 A2919 RMK AO2
PAGN 250356Z AUTO 00000KT 10SM CLR 03/03 A2919 RMK AO2 SLP875 T00280028
PAGN 250312Z AUTO 00000KT 10SM FEW002 04/03 A2919 RMK AO2
PAGN 250256Z AUTO 00000KT 10SM CLR 04/03 A2919 RMK AO2 SLP875 T00390033 56007
PAGN 250156Z AUTO 00000KT 10SM CLR 04/04 A2920 RMK AO2 SLP877 T00440044
PAGN 250056Z AUTO 00000KT 10SM CLR 06/05 A2920 RMK AO2 SLP878 T00610050
PAGN 242356Z AUTO 00000KT 10SM CLR 07/06 A2921 RMK AO2 SLP882 T00670056 10083 20039 58025
PAGN 242256Z AUTO 00000KT 10SM CLR 07/06 A2924 RMK AO2 SLP892 T00720056
PAGN 242233Z AUTO 00000KT 5SM BR CLR 07/05 A2925 RMK AO2
PAGN 242225Z AUTO 00000KT 2 1/2SM BR CLR 07/05 A2925 RMK AO2 VIS 1 1/4V5
PAGN 242156Z AUTO 00000KT 10SM CLR 07/05 A2927 RMK AO2 SLP900 T00720050
PAGN 242056Z AUTO 00000KT 10SM CLR 07/05 A2929 RMK AO2 SLP907 T00720050 56034
PAGN 241956Z AUTO 00000KT 10SM CLR 07/04 A2932 RMK AO2 SLP916 T00670044
PAGN 241856Z AUTO 00000KT 10SM CLR 06/04 A2935 RMK AO2 SLP928 T00560044
PAGN 241756Z AUTO 00000KT 10SM CLR 04/03 A2939 RMK AO2 SLP941 T00390033 10050 20022 58018
PAGN 241656Z AUTO 00000KT 10SM SCT002 02/02 A2941 RMK AO2 SLP950 T00220022 FZRANO
PAGN 241556Z AUTO 00000KT 10SM FEW004 03/02 A2944 RMK AO2 SLP958 T00280022
PAGN 241456Z AUTO 12004KT 10SM CLR 03/03 A2944 RMK AO2 SLP959 T00330033 58011
PAGN 241356Z AUTO 10004KT 10SM CLR 04/04 A2945 RMK AO2 SLP962 T00440039
PAGN 241256Z AUTO 07004KT 10SM SCT060 05/04 A2947 RMK AO2 SLP968 T00500039
PAGN 241156Z AUTO 07005KT 10SM SCT085 05/04 A2948 RMK AO2 SLP971 70015 T00500039 10056 20044 58002